createdAt,value
2023-03-03T00:01:37.569Z,15.91
2023-03-03T00:04:05.155Z,15.92
2023-03-03T00:06:32.460Z,15.91
2023-03-03T00:09:00.124Z,15.91
2023-03-03T00:11:27.519Z,15.89
2023-03-03T00:13:57.656Z,15.89
2023-03-03T00:16:29.712Z,15.87
2023-03-03T00:18:58.292Z,15.87
2023-03-03T00:21:30.259Z,15.87
2023-03-03T00:24:19.216Z,15.86
2023-03-03T00:27:27.749Z,15.86
2023-03-03T00:30:00.258Z,15.86
2023-03-03T00:32:55.683Z,15.83
2023-03-03T00:35:30.100Z,15.84
2023-03-03T00:38:00.038Z,15.83
2023-03-03T00:40:35.402Z,15.85
2023-03-03T00:43:12.339Z,15.83
2023-03-03T00:45:45.839Z,15.82
2023-03-03T00:48:28.025Z,15.81
2023-03-03T00:51:00.961Z,15.80
2023-03-03T00:53:31.161Z,15.78
2023-03-03T00:55:58.925Z,15.79
2023-03-03T00:58:27.505Z,15.77
2023-03-03T01:00:56.722Z,15.79
2023-03-03T01:03:25.981Z,15.78
2023-03-03T01:05:54.113Z,15.78
2023-03-03T01:08:22.247Z,15.77
2023-03-03T01:10:53.025Z,15.77
2023-03-03T01:13:23.744Z,15.76
2023-03-03T01:15:51.970Z,15.74
2023-03-03T01:18:20.317Z,15.74
2023-03-03T01:20:47.867Z,15.75
2023-03-03T01:23:15.204Z,15.73
2023-03-03T01:25:42.815Z,15.74
2023-03-03T01:28:10.789Z,15.72
2023-03-03T01:30:38.686Z,15.74
2023-03-03T01:33:05.996Z,15.71
2023-03-03T01:35:33.622Z,15.72
2023-03-03T01:38:01.200Z,15.71
2023-03-03T01:40:30.899Z,15.70
2023-03-03T01:43:00.794Z,15.71
2023-03-03T01:45:39.506Z,15.70
2023-03-03T01:48:14.278Z,15.70
2023-03-03T01:50:45.647Z,15.69
2023-03-03T01:53:18.960Z,15.69
2023-03-03T01:55:50.197Z,15.69
2023-03-03T01:58:28.356Z,15.69
2023-03-03T02:01:05.620Z,15.68
2023-03-03T02:03:35.180Z,15.68
2023-03-03T02:06:14.304Z,15.67
2023-03-03T02:09:22.136Z,15.67
2023-03-03T02:11:52.542Z,15.66
2023-03-03T02:14:19.769Z,15.67
2023-03-03T02:16:47.442Z,15.63
2023-03-03T02:19:42.989Z,15.64
2023-03-03T02:22:11.616Z,15.62
2023-03-03T02:25:01.022Z,15.66
2023-03-03T02:27:32.041Z,15.62
2023-03-03T02:30:15.229Z,15.62
2023-03-03T02:32:42.917Z,15.62
2023-03-03T02:35:35.263Z,15.62
2023-03-03T02:38:21.567Z,15.61
2023-03-03T02:41:05.132Z,15.59
2023-03-03T02:43:41.478Z,15.58
2023-03-03T02:46:08.894Z,15.59
2023-03-03T02:48:36.471Z,15.58
2023-03-03T02:51:04.005Z,15.58
2023-03-03T02:53:31.535Z,15.57
2023-03-03T02:55:58.973Z,15.57
2023-03-03T02:58:26.505Z,15.57
2023-03-03T03:00:55.401Z,15.57
2023-03-03T03:03:23.409Z,15.57
2023-03-03T03:05:50.744Z,15.55
2023-03-03T03:08:18.296Z,15.56
2023-03-03T03:10:45.564Z,15.54
2023-03-03T03:13:13.333Z,15.55
2023-03-03T03:15:40.868Z,15.54
2023-03-03T03:18:08.705Z,15.53
2023-03-03T03:20:40.175Z,15.55
2023-03-03T03:23:08.515Z,15.54
2023-03-03T03:25:42.637Z,15.52
2023-03-03T03:28:10.160Z,15.52
2023-03-03T03:30:37.480Z,15.51
2023-03-03T03:33:07.204Z,15.50
2023-03-03T03:35:35.162Z,15.51
2023-03-03T03:38:03.404Z,15.50
2023-03-03T03:40:30.783Z,15.50
2023-03-03T03:42:58.293Z,15.50
2023-03-03T03:45:25.549Z,15.49
2023-03-03T03:47:53.044Z,15.50
2023-03-03T03:50:20.336Z,15.49
2023-03-03T03:52:47.892Z,15.49
2023-03-03T03:55:15.252Z,15.47
2023-03-03T03:57:43.208Z,15.48
2023-03-03T04:00:11.826Z,15.47
2023-03-03T04:02:39.431Z,15.46
2023-03-03T04:05:07.719Z,15.46
2023-03-03T04:07:35.296Z,15.46
2023-03-03T04:10:02.621Z,15.44
2023-03-03T04:12:38.631Z,15.43
2023-03-03T04:15:12.183Z,15.43
2023-03-03T04:17:40.449Z,15.42
2023-03-03T04:20:08.263Z,15.41
2023-03-03T04:22:36.034Z,15.41
2023-03-03T04:25:05.559Z,15.42
2023-03-03T04:27:37.207Z,15.41
2023-03-03T04:30:06.553Z,15.40
2023-03-03T04:32:34.820Z,15.41
2023-03-03T04:35:08.172Z,15.41
2023-03-03T04:37:37.635Z,15.40
2023-03-03T04:40:06.642Z,15.40
2023-03-03T04:42:34.806Z,15.40
2023-03-03T04:45:02.715Z,15.39
2023-03-03T04:47:30.279Z,15.40
2023-03-03T04:49:57.831Z,15.38
2023-03-03T04:52:25.723Z,15.37
2023-03-03T04:54:53.236Z,15.38
2023-03-03T04:57:20.749Z,15.38
2023-03-03T04:59:48.562Z,15.37
2023-03-03T05:02:16.831Z,15.36
2023-03-03T05:04:44.358Z,15.35
2023-03-03T05:07:11.936Z,15.35
2023-03-03T05:09:39.282Z,15.35
2023-03-03T05:12:07.242Z,15.34
2023-03-03T05:14:34.501Z,15.34
2023-03-03T05:17:04.545Z,15.33
2023-03-03T05:19:31.936Z,15.35
2023-03-03T05:22:00.292Z,15.34
2023-03-03T05:24:27.752Z,15.33
2023-03-03T05:26:55.390Z,15.33
2023-03-03T05:29:22.834Z,15.33
2023-03-03T05:31:50.399Z,15.32
2023-03-03T05:34:17.788Z,15.33
2023-03-03T05:36:45.376Z,15.31
2023-03-03T05:39:12.720Z,15.32
2023-03-03T05:41:40.297Z,15.29
2023-03-03T05:44:07.994Z,15.31
2023-03-03T05:46:35.624Z,15.31
2023-03-03T05:49:04.507Z,15.29
2023-03-03T05:51:32.048Z,15.30
2023-03-03T05:53:59.328Z,15.30
2023-03-03T05:56:26.804Z,15.29
2023-03-03T05:58:54.088Z,15.29
2023-03-03T06:01:22.141Z,15.30
2023-03-03T06:03:49.441Z,15.30
2023-03-03T06:06:19.174Z,15.29
2023-03-03T06:08:47.228Z,15.29
2023-03-03T06:11:16.705Z,15.30
2023-03-03T06:13:44.094Z,15.31
2023-03-03T06:16:11.628Z,15.29
2023-03-03T06:18:38.936Z,15.31
2023-03-03T06:21:06.567Z,15.30
2023-03-03T06:23:33.918Z,15.30
2023-03-03T06:26:01.649Z,15.31
2023-03-03T06:28:28.870Z,15.32
2023-03-03T06:30:56.948Z,15.32
2023-03-03T06:33:24.504Z,15.32
2023-03-03T06:35:53.824Z,15.32
2023-03-03T06:38:21.778Z,15.32
2023-03-03T06:40:49.495Z,15.31
2023-03-03T06:43:16.740Z,15.29
2023-03-03T06:45:45.894Z,15.30
2023-03-03T06:48:14.382Z,15.28
2023-03-03T06:50:42.522Z,15.26
2023-03-03T06:53:15.343Z,15.27
2023-03-03T06:55:44.898Z,15.26
2023-03-03T06:58:20.357Z,15.25
2023-03-03T07:00:57.047Z,15.23
2023-03-03T07:03:33.905Z,15.22
2023-03-03T07:06:08.481Z,15.22
2023-03-03T07:08:36.301Z,15.21
2023-03-03T07:11:11.540Z,15.20
2023-03-03T07:13:42.289Z,15.21
2023-03-03T07:16:13.194Z,15.20
2023-03-03T07:18:53.581Z,15.19
2023-03-03T07:21:26.332Z,15.18
2023-03-03T07:23:54.360Z,15.18
2023-03-03T07:26:30.664Z,15.18
2023-03-03T07:29:14.417Z,15.17
2023-03-03T07:31:46.245Z,15.16
2023-03-03T07:34:38.024Z,15.17
2023-03-03T07:37:26.106Z,15.16
2023-03-03T07:39:53.417Z,15.16
2023-03-03T07:42:27.703Z,15.17
2023-03-03T07:44:57.707Z,15.17
2023-03-03T07:47:28.235Z,15.16
2023-03-03T07:50:00.198Z,15.16
2023-03-03T07:52:35.294Z,15.16
2023-03-03T07:55:22.950Z,15.17
2023-03-03T07:57:53.888Z,15.17
2023-03-03T08:00:21.137Z,15.17
2023-03-03T08:03:00.450Z,15.14
2023-03-03T08:05:34.576Z,15.15
2023-03-03T08:08:38.917Z,15.12
2023-03-03T08:11:09.643Z,15.11
2023-03-03T08:13:38.745Z,15.11
2023-03-03T08:16:08.954Z,15.12
2023-03-03T08:18:40.048Z,15.16
2023-03-03T08:21:17.989Z,15.15
2023-03-03T08:23:45.799Z,15.16
2023-03-03T08:26:14.086Z,15.16
2023-03-03T08:28:41.591Z,15.17
2023-03-03T08:31:18.410Z,15.17
2023-03-03T08:33:53.192Z,15.19
2023-03-03T08:36:20.745Z,15.18
2023-03-03T08:38:48.336Z,15.18
2023-03-03T08:41:15.652Z,15.17
2023-03-03T08:43:45.280Z,15.18
2023-03-03T08:46:12.751Z,15.19
2023-03-03T08:48:40.588Z,15.16
2023-03-03T08:51:07.886Z,15.17
2023-03-03T08:53:36.638Z,15.17
2023-03-03T08:56:05.154Z,15.18
2023-03-03T08:58:35.523Z,15.18
2023-03-03T09:01:03.974Z,15.17
2023-03-03T09:03:31.947Z,15.17
2023-03-03T09:05:59.650Z,15.15
2023-03-03T09:08:26.956Z,15.14
2023-03-03T09:10:54.606Z,15.16
2023-03-03T09:13:21.862Z,15.16
2023-03-03T09:15:50.460Z,15.14
2023-03-03T09:18:25.760Z,15.15
2023-03-03T09:20:54.903Z,15.13
2023-03-03T09:23:37.168Z,15.14
2023-03-03T09:26:28.199Z,15.14
2023-03-03T09:29:10.026Z,15.14
2023-03-03T09:31:43.245Z,15.14
2023-03-03T09:34:39.915Z,15.14
2023-03-03T09:37:23.525Z,15.14
2023-03-03T09:39:53.060Z,15.12
2023-03-03T09:42:26.461Z,15.12
2023-03-03T09:45:21.633Z,15.13
2023-03-03T09:47:49.091Z,15.11
2023-03-03T09:50:44.744Z,15.11
2023-03-03T09:53:15.102Z,15.12
2023-03-03T09:56:00.475Z,15.12
2023-03-03T09:58:45.748Z,15.10
2023-03-03T10:01:33.559Z,15.11
2023-03-03T10:04:16.242Z,15.10
2023-03-03T10:06:46.382Z,15.10
2023-03-03T10:09:44.723Z,15.10
2023-03-03T10:12:38.206Z,15.10
2023-03-03T10:15:37.639Z,15.09
2023-03-03T10:18:32.265Z,15.09
2023-03-03T10:21:24.012Z,15.09
2023-03-03T10:23:57.620Z,15.11
2023-03-03T10:26:42.010Z,15.11
2023-03-03T10:29:40.575Z,15.09
2023-03-03T10:32:28.506Z,15.10
2023-03-03T10:35:26.873Z,15.09
2023-03-03T10:38:25.039Z,15.07
2023-03-03T10:41:16.817Z,15.08
2023-03-03T10:43:59.823Z,15.07
2023-03-03T10:46:33.042Z,15.07
2023-03-03T10:49:18.832Z,15.06
2023-03-03T10:51:52.032Z,15.05
2023-03-03T10:54:52.008Z,15.06
2023-03-03T10:57:56.564Z,15.05
2023-03-03T11:00:29.541Z,15.04
2023-03-03T11:03:16.328Z,15.05
2023-03-03T11:05:43.905Z,15.05
2023-03-03T11:08:22.297Z,15.06
2023-03-03T11:11:17.177Z,15.05
2023-03-03T11:14:01.216Z,15.04
2023-03-03T11:16:53.840Z,15.05
2023-03-03T11:19:39.049Z,15.03
2023-03-03T11:22:21.496Z,15.05
2023-03-03T11:25:06.245Z,15.03
2023-03-03T11:28:10.033Z,15.04
2023-03-03T11:31:10.667Z,15.03
2023-03-03T11:33:58.801Z,15.04
2023-03-03T11:36:34.884Z,15.02
2023-03-03T11:39:08.886Z,15.03
2023-03-03T11:41:45.416Z,15.02
2023-03-03T11:44:29.080Z,15.03
2023-03-03T11:47:02.364Z,15.03
2023-03-03T11:49:52.750Z,15.04
2023-03-03T11:52:44.218Z,15.03
2023-03-03T11:55:41.321Z,15.04
2023-03-03T11:58:22.747Z,15.04
2023-03-03T12:01:17.856Z,15.03
2023-03-03T12:04:01.169Z,15.03
2023-03-03T12:06:50.520Z,15.02
2023-03-03T12:09:35.731Z,15.02
2023-03-03T12:12:14.010Z,15.03
2023-03-03T12:14:57.922Z,15.03
2023-03-03T12:17:56.110Z,15.03
2023-03-03T12:20:45.278Z,15.02
2023-03-03T12:23:35.943Z,15.04
2023-03-03T12:26:10.159Z,15.02
2023-03-03T12:29:12.850Z,15.04
2023-03-03T12:32:00.393Z,15.03
2023-03-03T12:34:38.824Z,15.04
2023-03-03T12:37:14.919Z,15.03
2023-03-03T12:39:54.307Z,15.04
2023-03-03T12:42:47.795Z,15.05
2023-03-03T12:45:37.120Z,15.04
2023-03-03T12:48:18.700Z,15.04
2023-03-03T12:51:31.317Z,15.04
2023-03-03T12:54:27.935Z,15.04
2023-03-03T12:57:01.126Z,15.06
2023-03-03T12:59:48.635Z,15.05
2023-03-03T13:02:43.756Z,15.04
2023-03-03T13:05:19.677Z,15.03
2023-03-03T13:07:56.155Z,15.04
2023-03-03T13:10:36.406Z,15.04
2023-03-03T13:13:27.492Z,15.04
2023-03-03T13:16:02.982Z,15.01
2023-03-03T13:18:41.764Z,15.02
2023-03-03T13:21:23.775Z,15.05
2023-03-03T13:23:57.372Z,15.04
2023-03-03T13:26:43.293Z,15.06
2023-03-03T13:29:28.895Z,15.02
2023-03-03T13:32:12.237Z,15.02
2023-03-03T13:34:51.403Z,15.06
2023-03-03T13:37:42.126Z,15.05
2023-03-03T13:40:12.620Z,15.05
2023-03-03T13:42:47.382Z,15.04
2023-03-03T13:45:30.630Z,15.06
2023-03-03T13:48:22.533Z,15.04
2023-03-03T13:50:56.048Z,15.02
2023-03-03T13:53:54.280Z,15.04
2023-03-03T13:56:40.519Z,15.04
2023-03-03T13:59:13.562Z,15.04
2023-03-03T14:02:02.429Z,15.04
2023-03-03T14:04:41.594Z,15.02
2023-03-03T14:07:22.821Z,15.01
2023-03-03T14:10:08.443Z,15.00
2023-03-03T14:12:46.910Z,15.00
2023-03-03T14:15:22.303Z,14.98
2023-03-03T14:18:05.389Z,15.00
2023-03-03T14:20:40.269Z,14.97
2023-03-03T14:23:14.864Z,14.98
2023-03-03T14:25:56.281Z,14.98
2023-03-03T14:28:26.873Z,14.96
2023-03-03T14:30:57.724Z,14.96
2023-03-03T14:33:31.531Z,14.98
2023-03-03T14:35:58.765Z,14.97
2023-03-03T14:38:32.790Z,14.98
2023-03-03T14:41:12.921Z,14.97
2023-03-03T14:43:41.429Z,14.97
2023-03-03T14:46:27.185Z,14.97
2023-03-03T14:49:06.792Z,14.98
2023-03-03T14:51:45.797Z,14.99
2023-03-03T14:54:28.182Z,14.98
2023-03-03T14:57:06.489Z,14.99
2023-03-03T14:59:34.847Z,15.00
2023-03-03T15:02:20.897Z,15.01
2023-03-03T15:04:48.778Z,15.02
2023-03-03T15:07:28.317Z,15.05
2023-03-03T15:09:55.972Z,15.07
2023-03-03T15:12:43.140Z,15.09
2023-03-03T15:15:11.645Z,15.09
2023-03-03T15:17:43.453Z,15.14
2023-03-03T15:21:00.335Z,15.15
2023-03-03T15:23:42.807Z,15.16
2023-03-03T15:26:19.667Z,15.22
2023-03-03T15:29:13.901Z,15.22
2023-03-03T15:32:01.231Z,15.28
2023-03-03T15:34:43.364Z,15.31
2023-03-03T15:37:13.946Z,15.33
2023-03-03T15:40:15.564Z,15.35
2023-03-03T15:42:49.676Z,15.35
2023-03-03T15:45:16.969Z,15.36
2023-03-03T15:48:21.923Z,15.39
2023-03-03T15:51:30.691Z,15.43
2023-03-03T15:54:34.380Z,15.45
2023-03-03T15:57:16.277Z,15.48
2023-03-03T16:00:22.699Z,15.51
2023-03-03T16:03:10.664Z,15.51
2023-03-03T16:05:52.583Z,15.55
2023-03-03T16:08:26.057Z,15.56
2023-03-03T16:10:57.640Z,15.58
2023-03-03T16:13:37.716Z,15.58
2023-03-03T16:16:33.481Z,15.60
2023-03-03T16:19:10.869Z,15.59
2023-03-03T16:21:41.280Z,15.59
2023-03-03T16:24:33.705Z,15.60
2023-03-03T16:27:11.373Z,15.60
2023-03-03T16:30:05.344Z,15.61
2023-03-03T16:32:45.502Z,15.62
2023-03-03T16:35:26.433Z,15.63
2023-03-03T16:38:01.817Z,15.63
2023-03-03T16:40:39.049Z,15.62
2023-03-03T16:43:17.218Z,15.64
2023-03-03T16:45:45.098Z,15.66
2023-03-03T16:48:37.931Z,15.68
2023-03-03T16:51:30.611Z,15.68
2023-03-03T16:54:11.318Z,15.66
2023-03-03T16:57:04.465Z,15.68
2023-03-03T16:59:36.494Z,15.68
2023-03-03T17:02:12.496Z,15.68
2023-03-03T17:05:03.017Z,15.68
2023-03-03T17:07:55.164Z,15.68
2023-03-03T17:10:25.716Z,15.66
2023-03-03T17:13:07.466Z,15.67
2023-03-03T17:15:54.316Z,15.66
2023-03-03T17:18:36.552Z,15.68
2023-03-03T17:21:15.602Z,15.69
2023-03-03T17:23:59.163Z,15.69
2023-03-03T17:26:54.112Z,15.70
2023-03-03T17:29:28.941Z,15.71
2023-03-03T17:32:24.900Z,15.70
2023-03-03T17:35:10.409Z,15.71
2023-03-03T17:37:54.286Z,15.69
2023-03-03T17:40:48.934Z,15.69
2023-03-03T17:43:27.430Z,15.68
2023-03-03T17:45:59.572Z,15.69
2023-03-03T17:48:56.455Z,15.69
2023-03-03T17:51:50.612Z,15.68
2023-03-03T17:54:37.135Z,15.67
2023-03-03T17:57:14.022Z,15.66
2023-03-03T17:59:44.587Z,15.67
2023-03-03T18:02:30.662Z,15.66
2023-03-03T18:05:12.594Z,15.67
2023-03-03T18:07:54.736Z,15.66
2023-03-03T18:10:38.048Z,15.62
2023-03-03T18:13:24.584Z,15.63
2023-03-03T18:16:10.807Z,15.61
2023-03-03T18:19:09.074Z,15.61
2023-03-03T18:21:53.494Z,15.61
2023-03-03T18:24:40.682Z,15.60
2023-03-03T18:27:34.358Z,15.60
2023-03-03T18:30:07.644Z,15.60
2023-03-03T18:32:42.502Z,15.61
2023-03-03T18:35:27.664Z,15.61
2023-03-03T18:37:55.482Z,15.62
2023-03-03T18:40:34.732Z,15.62
2023-03-03T18:43:39.565Z,15.63
2023-03-03T18:46:10.602Z,15.64
2023-03-03T18:49:06.772Z,15.61
2023-03-03T18:51:39.919Z,15.60
2023-03-03T18:54:17.147Z,15.61
2023-03-03T18:56:47.511Z,15.59
2023-03-03T18:59:35.297Z,15.61
2023-03-03T19:02:21.220Z,15.60
2023-03-03T19:04:56.643Z,15.58
2023-03-03T19:07:46.732Z,15.59
2023-03-03T19:10:19.949Z,15.59
2023-03-03T19:12:57.962Z,15.58
2023-03-03T19:15:33.928Z,15.57
2023-03-03T19:18:13.466Z,15.57
2023-03-03T19:20:48.115Z,15.56
2023-03-03T19:23:20.497Z,15.56
2023-03-03T19:26:28.496Z,15.59
2023-03-03T19:29:21.981Z,15.61
2023-03-03T19:32:10.735Z,15.61
2023-03-03T19:35:02.184Z,15.61
2023-03-03T19:37:54.345Z,15.62
2023-03-03T19:40:31.805Z,15.64
2023-03-03T19:43:08.355Z,15.62
2023-03-03T19:46:03.372Z,15.66
2023-03-03T19:48:46.077Z,15.62
2023-03-03T19:51:40.612Z,15.62
2023-03-03T19:54:35.875Z,15.65
2023-03-03T19:57:11.125Z,15.62
2023-03-03T19:59:56.758Z,15.64
2023-03-03T20:02:52.870Z,15.62
2023-03-03T20:05:41.917Z,15.64
2023-03-03T20:08:16.153Z,15.63
2023-03-03T20:11:10.125Z,15.60
2023-03-03T20:13:56.614Z,15.63
2023-03-03T20:16:41.388Z,15.64
2023-03-03T20:19:29.031Z,15.64
2023-03-03T20:22:19.270Z,15.63
2023-03-03T20:25:10.368Z,15.63
2023-03-03T20:27:55.163Z,15.64
2023-03-03T20:30:57.293Z,15.64
2023-03-03T20:33:30.734Z,15.65
2023-03-03T20:36:25.376Z,15.65
2023-03-03T20:38:55.925Z,15.64
2023-03-03T20:41:40.253Z,15.69
2023-03-03T20:44:42.515Z,15.67
2023-03-03T20:47:09.743Z,15.66
2023-03-03T20:49:40.189Z,15.64
2023-03-03T20:52:35.454Z,15.65
2023-03-03T20:55:05.768Z,15.64
2023-03-03T20:57:58.084Z,15.66
2023-03-03T21:00:52.141Z,15.66
2023-03-03T21:03:34.124Z,15.68
2023-03-03T21:06:15.379Z,15.70
2023-03-03T21:08:50.050Z,15.66
2023-03-03T21:11:22.541Z,15.66
2023-03-03T21:13:52.113Z,15.63
2023-03-03T21:16:25.904Z,15.62
2023-03-03T21:19:00.296Z,15.63
2023-03-03T21:21:30.928Z,15.63
2023-03-03T21:23:59.221Z,15.64
2023-03-03T21:26:45.874Z,15.63
2023-03-03T21:29:27.975Z,15.62
2023-03-03T21:32:03.895Z,15.61
2023-03-03T21:34:31.272Z,15.61
2023-03-03T21:37:00.599Z,15.63
2023-03-03T21:39:36.091Z,15.59
2023-03-03T21:42:15.060Z,15.58
2023-03-03T21:44:49.576Z,15.59
2023-03-03T21:47:20.042Z,15.58
2023-03-03T21:49:50.032Z,15.58
2023-03-03T21:52:19.829Z,15.57
2023-03-03T21:54:49.785Z,15.57
2023-03-03T21:57:17.482Z,15.59
2023-03-03T21:59:45.129Z,15.59
2023-03-03T22:02:12.656Z,15.59
2023-03-03T22:04:40.919Z,15.58
2023-03-03T22:07:08.960Z,15.58
2023-03-03T22:09:37.462Z,15.60
2023-03-03T22:12:07.335Z,15.61
2023-03-03T22:14:39.489Z,15.59
2023-03-03T22:17:08.072Z,15.60
2023-03-03T22:19:35.822Z,15.60
2023-03-03T22:22:03.087Z,15.59
2023-03-03T22:24:31.365Z,15.60
2023-03-03T22:26:58.646Z,15.60
2023-03-03T22:29:26.418Z,15.58
2023-03-03T22:31:53.749Z,15.59
2023-03-03T22:34:22.127Z,15.60
2023-03-03T22:36:49.392Z,15.59
2023-03-03T22:39:16.864Z,15.60
2023-03-03T22:41:44.131Z,15.61
2023-03-03T22:44:12.034Z,15.65
2023-03-03T22:46:39.347Z,15.63
2023-03-03T22:49:07.010Z,15.63
2023-03-03T22:51:34.347Z,15.62
2023-03-03T22:54:02.016Z,15.62
2023-03-03T22:56:29.273Z,15.64
2023-03-03T22:58:57.200Z,15.62
2023-03-03T23:01:24.799Z,15.62
2023-03-03T23:03:52.321Z,15.60
2023-03-03T23:06:19.627Z,15.60
2023-03-03T23:08:47.200Z,15.60
2023-03-03T23:11:14.532Z,15.60
2023-03-03T23:13:42.239Z,15.62
2023-03-03T23:16:09.713Z,15.61
2023-03-03T23:18:37.286Z,15.59
2023-03-03T23:21:04.738Z,15.61
2023-03-03T23:23:32.473Z,15.61
2023-03-03T23:25:59.766Z,15.61
2023-03-03T23:28:27.724Z,15.59
2023-03-03T23:30:55.083Z,15.59
2023-03-03T23:33:22.622Z,15.59
2023-03-03T23:35:50.038Z,15.58
2023-03-03T23:38:17.791Z,15.57
2023-03-03T23:40:50.671Z,15.57
2023-03-03T23:43:18.160Z,15.59
2023-03-03T23:45:45.872Z,15.59
2023-03-03T23:48:13.938Z,15.60
2023-03-03T23:50:41.246Z,15.58
2023-03-03T23:53:09.019Z,15.59
2023-03-03T23:55:37.530Z,15.57
2023-03-03T23:58:05.330Z,15.58
